Terminal Aerodrome Forecast
Issued by NWS

Home | Current Version | Previous Version | Text Only | Print | Product List | Glossary On
Versions: 1 2 3 4 5 6 7 8 9 10 11 12 13 14 15 16 17 18 19 20 21 22 23
824
FTUS43 KBIS 280232 AAA
TAFJMS
TAF AMD
KJMS 280232Z 2803/2824 04010KT P6SM BKN010 OVC015
      TEMPO 2803/2806 OVC008
     FM280600 03011KT P6SM SCT006 OVC010
     FM281200 01010KT P6SM BKN025
     FM281500 36009KT P6SM BKN035
     FM281800 36009KT P6SM SCT020 BKN180=

USA.gov is the U.S. government's official web portal to all federal, state and local government web resources and services.